sensor_id;sensor_type;location;lat;lon;timestamp;P1;durP1;ratioP1;P2;durP2;ratioP2
23670;SDS011;12012;51.998;7.614;2022-09-12T00:01:41;14.40;;;11.68;;
23670;SDS011;12012;51.998;7.614;2022-09-12T00:04:08;13.13;;;10.75;;
23670;SDS011;12012;51.998;7.614;2022-09-12T00:06:35;13.63;;;11.82;;
23670;SDS011;12012;51.998;7.614;2022-09-12T00:09:03;12.85;;;11.40;;
23670;SDS011;12012;51.998;7.614;2022-09-12T00:11:35;15.32;;;11.93;;
23670;SDS011;12012;51.998;7.614;2022-09-12T00:14:02;12.15;;;10.25;;
23670;SDS011;12012;51.998;7.614;2022-09-12T00:16:29;13.65;;;10.98;;
23670;SDS011;12012;51.998;7.614;2022-09-12T00:18:57;17.77;;;14.40;;
23670;SDS011;12012;51.998;7.614;2022-09-12T00:21:22;16.92;;;14.32;;
23670;SDS011;12012;51.998;7.614;2022-09-12T00:23:48;18.33;;;13.93;;
23670;SDS011;12012;51.998;7.614;2022-09-12T00:26:14;14.18;;;11.02;;
23670;SDS011;12012;51.998;7.614;2022-09-12T00:28:41;13.90;;;11.30;;
23670;SDS011;12012;51.998;7.614;2022-09-12T00:31:09;12.60;;;10.35;;
23670;SDS011;12012;51.998;7.614;2022-09-12T00:33:38;14.73;;;12.32;;
23670;SDS011;12012;51.998;7.614;2022-09-12T00:36:05;18.27;;;13.88;;
23670;SDS011;12012;51.998;7.614;2022-09-12T00:38:32;15.82;;;12.90;;
23670;SDS011;12012;51.998;7.614;2022-09-12T00:41:02;20.92;;;16.50;;
23670;SDS011;12012;51.998;7.614;2022-09-12T00:48:58;24.02;;;18.85;;
23670;SDS011;12012;51.998;7.614;2022-09-12T00:51:44;14.63;;;12.18;;
23670;SDS011;12012;51.998;7.614;2022-09-12T00:54:18;23.55;;;17.17;;
23670;SDS011;12012;51.998;7.614;2022-09-12T00:56:48;20.08;;;14.77;;
23670;SDS011;12012;51.998;7.614;2022-09-12T00:59:16;27.20;;;20.05;;
23670;SDS011;12012;51.998;7.614;2022-09-12T01:01:45;17.45;;;13.50;;
23670;SDS011;12012;51.998;7.614;2022-09-12T01:04:13;14.63;;;11.65;;
23670;SDS011;12012;51.998;7.614;2022-09-12T01:06:42;21.30;;;15.40;;
23670;SDS011;12012;51.998;7.614;2022-09-12T01:09:09;19.35;;;15.32;;
23670;SDS011;12012;51.998;7.614;2022-09-12T01:11:38;16.83;;;13.32;;
23670;SDS011;12012;51.998;7.614;2022-09-12T01:14:05;16.23;;;12.10;;
23670;SDS011;12012;51.998;7.614;2022-09-12T01:16:33;16.00;;;13.10;;
23670;SDS011;12012;51.998;7.614;2022-09-12T01:21:35;18.65;;;13.93;;
23670;SDS011;12012;51.998;7.614;2022-09-12T01:27:19;18.20;;;14.57;;
23670;SDS011;12012;51.998;7.614;2022-09-12T01:35:05;20.80;;;15.63;;
23670;SDS011;12012;51.998;7.614;2022-09-12T01:40:28;19.75;;;14.52;;
23670;SDS011;12012;51.998;7.614;2022-09-12T01:43:04;22.67;;;14.80;;
23670;SDS011;12012;51.998;7.614;2022-09-12T01:48:38;29.15;;;20.65;;
23670;SDS011;12012;51.998;7.614;2022-09-12T01:51:17;22.20;;;16.67;;
23670;SDS011;12012;51.998;7.614;2022-09-12T01:54:20;22.08;;;16.10;;
23670;SDS011;12012;51.998;7.614;2022-09-12T01:56:52;21.10;;;16.50;;
23670;SDS011;12012;51.998;7.614;2022-09-12T01:59:24;23.45;;;17.67;;
23670;SDS011;12012;51.998;7.614;2022-09-12T02:04:28;24.50;;;17.52;;
23670;SDS011;12012;51.998;7.614;2022-09-12T02:09:36;23.70;;;17.50;;
23670;SDS011;12012;51.998;7.614;2022-09-12T02:12:10;18.90;;;13.95;;
23670;SDS011;12012;51.998;7.614;2022-09-12T02:14:41;23.52;;;16.77;;
23670;SDS011;12012;51.998;7.614;2022-09-12T02:19:43;17.80;;;13.55;;
23670;SDS011;12012;51.998;7.614;2022-09-12T02:22:16;25.38;;;18.45;;
23670;SDS011;12012;51.998;7.614;2022-09-12T02:24:45;21.25;;;15.52;;
23670;SDS011;12012;51.998;7.614;2022-09-12T02:27:15;23.15;;;16.05;;
23670;SDS011;12012;51.998;7.614;2022-09-12T02:29:44;22.75;;;17.42;;
23670;SDS011;12012;51.998;7.614;2022-09-12T02:35:57;19.90;;;14.93;;
23670;SDS011;12012;51.998;7.614;2022-09-12T02:40:35;34.28;;;22.30;;
23670;SDS011;12012;51.998;7.614;2022-09-12T02:43:02;28.83;;;19.92;;
23670;SDS011;12012;51.998;7.614;2022-09-12T02:45:29;18.02;;;14.02;;
23670;SDS011;12012;51.998;7.614;2022-09-12T02:48:08;24.55;;;16.17;;
23670;SDS011;12012;51.998;7.614;2022-09-12T02:50:39;23.00;;;16.92;;
23670;SDS011;12012;51.998;7.614;2022-09-12T02:53:06;31.23;;;22.02;;
23670;SDS011;12012;51.998;7.614;2022-09-12T02:55:33;23.65;;;16.02;;
23670;SDS011;12012;51.998;7.614;2022-09-12T02:58:00;22.92;;;16.52;;
23670;SDS011;12012;51.998;7.614;2022-09-12T03:00:30;16.65;;;12.40;;
23670;SDS011;12012;51.998;7.614;2022-09-12T03:03:24;31.20;;;21.40;;
23670;SDS011;12012;51.998;7.614;2022-09-12T03:06:00;32.22;;;22.55;;
23670;SDS011;12012;51.998;7.614;2022-09-12T03:11:34;25.27;;;17.10;;
23670;SDS011;12012;51.998;7.614;2022-09-12T03:22:53;23.85;;;17.55;;
23670;SDS011;12012;51.998;7.614;2022-09-12T03:25:42;32.13;;;21.50;;
23670;SDS011;12012;51.998;7.614;2022-09-12T03:28:13;34.88;;;23.48;;
23670;SDS011;12012;51.998;7.614;2022-09-12T03:30:40;30.23;;;20.13;;
23670;SDS011;12012;51.998;7.614;2022-09-12T03:33:12;24.83;;;16.75;;
23670;SDS011;12012;51.998;7.614;2022-09-12T03:35:42;34.55;;;22.52;;
23670;SDS011;12012;51.998;7.614;2022-09-12T03:38:09;29.52;;;20.60;;
23670;SDS011;12012;51.998;7.614;2022-09-12T03:40:35;29.33;;;19.95;;
23670;SDS011;12012;51.998;7.614;2022-09-12T03:43:02;36.60;;;24.52;;
23670;SDS011;12012;51.998;7.614;2022-09-12T03:45:28;26.17;;;17.77;;
23670;SDS011;12012;51.998;7.614;2022-09-12T03:47:54;30.08;;;19.38;;
23670;SDS011;12012;51.998;7.614;2022-09-12T03:50:19;25.25;;;18.33;;
23670;SDS011;12012;51.998;7.614;2022-09-12T03:52:45;32.05;;;21.00;;
23670;SDS011;12012;51.998;7.614;2022-09-12T03:55:11;26.58;;;18.33;;
23670;SDS011;12012;51.998;7.614;2022-09-12T03:57:36;24.55;;;17.05;;
23670;SDS011;12012;51.998;7.614;2022-09-12T04:00:03;24.48;;;17.55;;
23670;SDS011;12012;51.998;7.614;2022-09-12T04:02:30;25.17;;;16.63;;
23670;SDS011;12012;51.998;7.614;2022-09-12T04:04:56;26.35;;;18.60;;
23670;SDS011;12012;51.998;7.614;2022-09-12T04:07:21;28.85;;;20.33;;
23670;SDS011;12012;51.998;7.614;2022-09-12T04:09:47;23.33;;;15.48;;
23670;SDS011;12012;51.998;7.614;2022-09-12T04:12:13;31.10;;;21.67;;
23670;SDS011;12012;51.998;7.614;2022-09-12T04:14:38;25.05;;;18.50;;
23670;SDS011;12012;51.998;7.614;2022-09-12T04:17:04;36.05;;;25.00;;
23670;SDS011;12012;51.998;7.614;2022-09-12T04:19:30;22.90;;;17.20;;
23670;SDS011;12012;51.998;7.614;2022-09-12T04:21:56;24.40;;;17.75;;
23670;SDS011;12012;51.998;7.614;2022-09-12T04:24:21;29.15;;;20.65;;
23670;SDS011;12012;51.998;7.614;2022-09-12T04:26:47;25.08;;;18.70;;
23670;SDS011;12012;51.998;7.614;2022-09-12T04:29:13;23.42;;;17.85;;
23670;SDS011;12012;51.998;7.614;2022-09-12T04:31:39;30.20;;;20.52;;
23670;SDS011;12012;51.998;7.614;2022-09-12T04:34:04;29.73;;;19.65;;
23670;SDS011;12012;51.998;7.614;2022-09-12T04:36:30;23.67;;;15.95;;
23670;SDS011;12012;51.998;7.614;2022-09-12T04:38:58;22.55;;;16.10;;
23670;SDS011;12012;51.998;7.614;2022-09-12T04:41:28;29.65;;;20.08;;
23670;SDS011;12012;51.998;7.614;2022-09-12T04:43:56;20.95;;;15.00;;
23670;SDS011;12012;51.998;7.614;2022-09-12T04:46:25;21.83;;;15.93;;
23670;SDS011;12012;51.998;7.614;2022-09-12T04:48:51;23.33;;;17.05;;
23670;SDS011;12012;51.998;7.614;2022-09-12T04:51:18;23.77;;;16.02;;
23670;SDS011;12012;51.998;7.614;2022-09-12T04:53:53;33.10;;;23.70;;
23670;SDS011;12012;51.998;7.614;2022-09-12T04:56:20;29.20;;;18.42;;
23670;SDS011;12012;51.998;7.614;2022-09-12T04:58:46;25.92;;;17.10;;
23670;SDS011;12012;51.998;7.614;2022-09-12T05:01:13;30.27;;;21.13;;
23670;SDS011;12012;51.998;7.614;2022-09-12T05:03:44;23.55;;;16.13;;
23670;SDS011;12012;51.998;7.614;2022-09-12T05:06:12;28.13;;;19.23;;
23670;SDS011;12012;51.998;7.614;2022-09-12T05:08:39;35.80;;;22.95;;
23670;SDS011;12012;51.998;7.614;2022-09-12T05:11:05;23.60;;;17.17;;
23670;SDS011;12012;51.998;7.614;2022-09-12T05:13:34;19.77;;;14.05;;
23670;SDS011;12012;51.998;7.614;2022-09-12T05:16:00;23.90;;;17.33;;
23670;SDS011;12012;51.998;7.614;2022-09-12T05:18:27;31.48;;;22.30;;
23670;SDS011;12012;51.998;7.614;2022-09-12T05:20:57;31.27;;;21.63;;
23670;SDS011;12012;51.998;7.614;2022-09-12T05:23:24;34.83;;;22.70;;
23670;SDS011;12012;51.998;7.614;2022-09-12T05:25:52;21.80;;;15.43;;
23670;SDS011;12012;51.998;7.614;2022-09-12T05:28:20;22.25;;;16.33;;
23670;SDS011;12012;51.998;7.614;2022-09-12T05:30:46;24.23;;;16.73;;
23670;SDS011;12012;51.998;7.614;2022-09-12T05:33:12;25.48;;;16.65;;
23670;SDS011;12012;51.998;7.614;2022-09-12T05:35:38;31.50;;;21.85;;
23670;SDS011;12012;51.998;7.614;2022-09-12T05:38:05;38.58;;;26.05;;
23670;SDS011;12012;51.998;7.614;2022-09-12T05:40:31;25.80;;;19.15;;
23670;SDS011;12012;51.998;7.614;2022-09-12T05:42:57;23.15;;;16.48;;
23670;SDS011;12012;51.998;7.614;2022-09-12T05:45:24;39.67;;;27.48;;
23670;SDS011;12012;51.998;7.614;2022-09-12T05:47:53;31.13;;;22.83;;
23670;SDS011;12012;51.998;7.614;2022-09-12T05:50:19;27.15;;;17.92;;
23670;SDS011;12012;51.998;7.614;2022-09-12T05:52:45;29.67;;;20.83;;
23670;SDS011;12012;51.998;7.614;2022-09-12T05:55:10;24.40;;;16.55;;
23670;SDS011;12012;51.998;7.614;2022-09-12T05:57:36;32.38;;;20.77;;
23670;SDS011;12012;51.998;7.614;2022-09-12T06:00:02;25.05;;;18.80;;
23670;SDS011;12012;51.998;7.614;2022-09-12T06:02:29;23.27;;;15.70;;
23670;SDS011;12012;51.998;7.614;2022-09-12T06:04:55;28.00;;;21.52;;
23670;SDS011;12012;51.998;7.614;2022-09-12T06:07:21;23.52;;;17.27;;
23670;SDS011;12012;51.998;7.614;2022-09-12T06:09:46;32.78;;;21.02;;
23670;SDS011;12012;51.998;7.614;2022-09-12T06:12:12;20.67;;;13.95;;
23670;SDS011;12012;51.998;7.614;2022-09-12T06:14:37;29.98;;;21.88;;
23670;SDS011;12012;51.998;7.614;2022-09-12T06:17:03;22.65;;;16.58;;
23670;SDS011;12012;51.998;7.614;2022-09-12T06:19:29;17.08;;;13.55;;
23670;SDS011;12012;51.998;7.614;2022-09-12T06:21:55;22.95;;;17.85;;
23670;SDS011;12012;51.998;7.614;2022-09-12T06:24:20;23.02;;;18.15;;
23670;SDS011;12012;51.998;7.614;2022-09-12T06:26:46;20.90;;;15.68;;
23670;SDS011;12012;51.998;7.614;2022-09-12T06:29:13;24.17;;;18.35;;
23670;SDS011;12012;51.998;7.614;2022-09-12T06:31:39;36.60;;;26.08;;
23670;SDS011;12012;51.998;7.614;2022-09-12T06:34:07;16.80;;;13.65;;
23670;SDS011;12012;51.998;7.614;2022-09-12T06:36:38;19.90;;;14.30;;
23670;SDS011;12012;51.998;7.614;2022-09-12T06:39:06;22.40;;;16.10;;
23670;SDS011;12012;51.998;7.614;2022-09-12T06:41:35;17.52;;;13.88;;
23670;SDS011;12012;51.998;7.614;2022-09-12T06:44:01;19.33;;;16.42;;
23670;SDS011;12012;51.998;7.614;2022-09-12T06:46:27;18.35;;;14.15;;
23670;SDS011;12012;51.998;7.614;2022-09-12T06:48:56;20.73;;;16.90;;
23670;SDS011;12012;51.998;7.614;2022-09-12T06:51:23;14.52;;;12.05;;
23670;SDS011;12012;51.998;7.614;2022-09-12T06:53:50;18.70;;;14.75;;
23670;SDS011;12012;51.998;7.614;2022-09-12T06:56:19;15.32;;;11.98;;
23670;SDS011;12012;51.998;7.614;2022-09-12T06:58:46;16.92;;;13.93;;
23670;SDS011;12012;51.998;7.614;2022-09-12T07:01:22;16.13;;;13.60;;
23670;SDS011;12012;51.998;7.614;2022-09-12T07:03:53;17.52;;;15.15;;
23670;SDS011;12012;51.998;7.614;2022-09-12T07:06:21;15.27;;;12.65;;
23670;SDS011;12012;51.998;7.614;2022-09-12T07:08:49;13.98;;;10.50;;
23670;SDS011;12012;51.998;7.614;2022-09-12T07:11:21;14.40;;;12.57;;
23670;SDS011;12012;51.998;7.614;2022-09-12T07:13:50;11.88;;;9.75;;
23670;SDS011;12012;51.998;7.614;2022-09-12T07:16:17;10.35;;;9.00;;
23670;SDS011;12012;51.998;7.614;2022-09-12T07:18:43;10.90;;;9.68;;
23670;SDS011;12012;51.998;7.614;2022-09-12T07:21:11;15.32;;;10.98;;
23670;SDS011;12012;51.998;7.614;2022-09-12T07:23:38;10.30;;;8.68;;
23670;SDS011;12012;51.998;7.614;2022-09-12T07:26:04;9.77;;;8.43;;
23670;SDS011;12012;51.998;7.614;2022-09-12T07:28:31;10.15;;;8.57;;
23670;SDS011;12012;51.998;7.614;2022-09-12T07:30:57;11.25;;;9.43;;
23670;SDS011;12012;51.998;7.614;2022-09-12T07:33:33;12.05;;;9.30;;
23670;SDS011;12012;51.998;7.614;2022-09-12T07:36:00;9.25;;;8.05;;
23670;SDS011;12012;51.998;7.614;2022-09-12T07:38:27;11.73;;;8.82;;
23670;SDS011;12012;51.998;7.614;2022-09-12T07:40:53;10.85;;;8.57;;
23670;SDS011;12012;51.998;7.614;2022-09-12T07:43:18;8.55;;;7.30;;
23670;SDS011;12012;51.998;7.614;2022-09-12T07:45:44;9.88;;;8.25;;
23670;SDS011;12012;51.998;7.614;2022-09-12T07:48:10;12.43;;;10.45;;
23670;SDS011;12012;51.998;7.614;2022-09-12T07:50:37;11.80;;;8.40;;
23670;SDS011;12012;51.998;7.614;2022-09-12T07:53:03;10.27;;;8.10;;
23670;SDS011;12012;51.998;7.614;2022-09-12T07:55:29;6.95;;;6.25;;
23670;SDS011;12012;51.998;7.614;2022-09-12T07:57:55;9.68;;;8.65;;
23670;SDS011;12012;51.998;7.614;2022-09-12T08:00:20;11.00;;;8.68;;
23670;SDS011;12012;51.998;7.614;2022-09-12T08:02:52;10.45;;;9.32;;
23670;SDS011;12012;51.998;7.614;2022-09-12T08:07:44;9.25;;;7.38;;
23670;SDS011;12012;51.998;7.614;2022-09-12T08:10:10;10.25;;;6.80;;
23670;SDS011;12012;51.998;7.614;2022-09-12T08:12:36;12.63;;;9.80;;
23670;SDS011;12012;51.998;7.614;2022-09-12T08:15:01;11.60;;;9.85;;
23670;SDS011;12012;51.998;7.614;2022-09-12T08:17:27;13.27;;;9.27;;
23670;SDS011;12012;51.998;7.614;2022-09-12T08:19:53;9.07;;;7.82;;
23670;SDS011;12012;51.998;7.614;2022-09-12T08:22:20;12.18;;;9.77;;
23670;SDS011;12012;51.998;7.614;2022-09-12T08:24:46;10.05;;;7.72;;
23670;SDS011;12012;51.998;7.614;2022-09-12T08:27:12;14.43;;;11.52;;
23670;SDS011;12012;51.998;7.614;2022-09-12T08:29:38;10.73;;;6.88;;
23670;SDS011;12012;51.998;7.614;2022-09-12T08:32:05;8.90;;;7.88;;
23670;SDS011;12012;51.998;7.614;2022-09-12T08:34:30;8.93;;;6.70;;
23670;SDS011;12012;51.998;7.614;2022-09-12T08:36:56;9.18;;;7.65;;
23670;SDS011;12012;51.998;7.614;2022-09-12T08:39:22;9.57;;;7.28;;
23670;SDS011;12012;51.998;7.614;2022-09-12T08:41:53;8.70;;;7.45;;
23670;SDS011;12012;51.998;7.614;2022-09-12T08:44:48;13.27;;;9.68;;
23670;SDS011;12012;51.998;7.614;2022-09-12T08:47:39;17.08;;;9.98;;
23670;SDS011;12012;51.998;7.614;2022-09-12T08:54:59;11.48;;;8.75;;
23670;SDS011;12012;51.998;7.614;2022-09-12T08:57:26;12.70;;;9.05;;
23670;SDS011;12012;51.998;7.614;2022-09-12T08:59:52;10.73;;;7.97;;
23670;SDS011;12012;51.998;7.614;2022-09-12T09:07:57;8.88;;;7.45;;
23670;SDS011;12012;51.998;7.614;2022-09-12T09:16:25;9.85;;;7.63;;
23670;SDS011;12012;51.998;7.614;2022-09-12T09:18:56;7.60;;;6.75;;
23670;SDS011;12012;51.998;7.614;2022-09-12T09:24:12;8.18;;;6.22;;
23670;SDS011;12012;51.998;7.614;2022-09-12T09:26:45;8.10;;;6.63;;
23670;SDS011;12012;51.998;7.614;2022-09-12T09:29:21;7.75;;;6.50;;
23670;SDS011;12012;51.998;7.614;2022-09-12T09:32:11;9.45;;;7.95;;
23670;SDS011;12012;51.998;7.614;2022-09-12T09:34:42;9.77;;;8.77;;
23670;SDS011;12012;51.998;7.614;2022-09-12T09:37:24;10.27;;;6.30;;
23670;SDS011;12012;51.998;7.614;2022-09-12T09:40:20;12.05;;;6.45;;
23670;SDS011;12012;51.998;7.614;2022-09-12T09:45:44;14.63;;;9.48;;
23670;SDS011;12012;51.998;7.614;2022-09-12T09:50:59;9.98;;;8.55;;
23670;SDS011;12012;51.998;7.614;2022-09-12T09:53:36;13.35;;;8.55;;
23670;SDS011;12012;51.998;7.614;2022-09-12T09:56:11;8.35;;;7.50;;
23670;SDS011;12012;51.998;7.614;2022-09-12T09:58:51;10.73;;;8.10;;
23670;SDS011;12012;51.998;7.614;2022-09-12T10:01:17;9.52;;;7.93;;
23670;SDS011;12012;51.998;7.614;2022-09-12T10:03:47;9.85;;;7.13;;
23670;SDS011;12012;51.998;7.614;2022-09-12T10:06:29;13.65;;;8.40;;
23670;SDS011;12012;51.998;7.614;2022-09-12T10:11:38;10.70;;;7.30;;
23670;SDS011;12012;51.998;7.614;2022-09-12T10:14:04;9.48;;;7.30;;
23670;SDS011;12012;51.998;7.614;2022-09-12T10:16:50;8.55;;;7.25;;
23670;SDS011;12012;51.998;7.614;2022-09-12T10:19:37;11.07;;;9.02;;
23670;SDS011;12012;51.998;7.614;2022-09-12T10:22:04;11.32;;;7.72;;
23670;SDS011;12012;51.998;7.614;2022-09-12T10:24:35;11.70;;;9.82;;
23670;SDS011;12012;51.998;7.614;2022-09-12T10:29:34;8.38;;;6.93;;
23670;SDS011;12012;51.998;7.614;2022-09-12T10:32:10;15.63;;;10.45;;
23670;SDS011;12012;51.998;7.614;2022-09-12T10:34:40;9.88;;;7.93;;
23670;SDS011;12012;51.998;7.614;2022-09-12T10:37:17;10.77;;;7.70;;
23670;SDS011;12012;51.998;7.614;2022-09-12T10:39:52;8.95;;;7.95;;
23670;SDS011;12012;51.998;7.614;2022-09-12T10:45:27;7.05;;;6.35;;
23670;SDS011;12012;51.998;7.614;2022-09-12T10:50:46;8.18;;;7.30;;
23670;SDS011;12012;51.998;7.614;2022-09-12T11:02:13;6.97;;;6.18;;
23670;SDS011;12012;51.998;7.614;2022-09-12T11:05:06;10.07;;;6.28;;
23670;SDS011;12012;51.998;7.614;2022-09-12T11:16:40;6.55;;;4.93;;
23670;SDS011;12012;51.998;7.614;2022-09-12T11:29:49;5.18;;;4.70;;
23670;SDS011;12012;51.998;7.614;2022-09-12T11:35:26;5.35;;;4.85;;
23670;SDS011;12012;51.998;7.614;2022-09-12T11:40:53;3.97;;;3.58;;
23670;SDS011;12012;51.998;7.614;2022-09-12T11:45:45;4.20;;;3.63;;
23670;SDS011;12012;51.998;7.614;2022-09-12T11:48:14;4.50;;;3.90;;
23670;SDS011;12012;51.998;7.614;2022-09-12T11:50:51;2.65;;;2.45;;
23670;SDS011;12012;51.998;7.614;2022-09-12T11:53:18;2.75;;;2.55;;
23670;SDS011;12012;51.998;7.614;2022-09-12T11:55:55;4.25;;;3.28;;
23670;SDS011;12012;51.998;7.614;2022-09-12T11:58:26;3.58;;;3.28;;
23670;SDS011;12012;51.998;7.614;2022-09-12T12:00:56;4.38;;;3.58;;
23670;SDS011;12012;51.998;7.614;2022-09-12T12:03:36;3.85;;;3.22;;
23670;SDS011;12012;51.998;7.614;2022-09-12T12:08:40;4.88;;;2.75;;
23670;SDS011;12012;51.998;7.614;2022-09-12T12:11:08;3.33;;;2.90;;
23670;SDS011;12012;51.998;7.614;2022-09-12T12:13:53;4.90;;;2.88;;
23670;SDS011;12012;51.998;7.614;2022-09-12T12:16:37;6.35;;;3.13;;
23670;SDS011;12012;51.998;7.614;2022-09-12T12:21:42;3.67;;;2.80;;
23670;SDS011;12012;51.998;7.614;2022-09-12T12:24:14;3.60;;;2.70;;
23670;SDS011;12012;51.998;7.614;2022-09-12T12:26:45;3.53;;;3.22;;
23670;SDS011;12012;51.998;7.614;2022-09-12T12:29:46;4.35;;;3.20;;
23670;SDS011;12012;51.998;7.614;2022-09-12T12:34:41;3.10;;;2.78;;
23670;SDS011;12012;51.998;7.614;2022-09-12T12:44:59;3.67;;;3.35;;
23670;SDS011;12012;51.998;7.614;2022-09-12T12:47:26;5.18;;;3.33;;
23670;SDS011;12012;51.998;7.614;2022-09-12T12:49:55;4.72;;;3.10;;
23670;SDS011;12012;51.998;7.614;2022-09-12T12:52:30;3.25;;;2.72;;
23670;SDS011;12012;51.998;7.614;2022-09-12T12:55:12;3.78;;;3.10;;
23670;SDS011;12012;51.998;7.614;2022-09-12T12:57:47;2.97;;;2.78;;
23670;SDS011;12012;51.998;7.614;2022-09-12T13:02:51;9.15;;;4.13;;
23670;SDS011;12012;51.998;7.614;2022-09-12T13:05:24;10.23;;;3.95;;
23670;SDS011;12012;51.998;7.614;2022-09-12T13:07:58;8.00;;;3.60;;
23670;SDS011;12012;51.998;7.614;2022-09-12T13:10:30;4.28;;;3.13;;
23670;SDS011;12012;51.998;7.614;2022-09-12T13:12:57;4.70;;;3.00;;
23670;SDS011;12012;51.998;7.614;2022-09-12T13:15:46;4.88;;;3.28;;
23670;SDS011;12012;51.998;7.614;2022-09-12T13:18:14;5.13;;;3.42;;
23670;SDS011;12012;51.998;7.614;2022-09-12T13:23:29;5.82;;;3.20;;
23670;SDS011;12012;51.998;7.614;2022-09-12T13:25:57;7.32;;;3.40;;
23670;SDS011;12012;51.998;7.614;2022-09-12T13:28:25;3.85;;;2.75;;
23670;SDS011;12012;51.998;7.614;2022-09-12T13:45:11;4.90;;;3.47;;
23670;SDS011;12012;51.998;7.614;2022-09-12T13:47:52;3.78;;;2.97;;
23670;SDS011;12012;51.998;7.614;2022-09-12T13:50:21;4.15;;;3.00;;
23670;SDS011;12012;51.998;7.614;2022-09-12T13:52:50;2.85;;;2.58;;
23670;SDS011;12012;51.998;7.614;2022-09-12T13:55:22;5.32;;;2.97;;
23670;SDS011;12012;51.998;7.614;2022-09-12T13:57:58;3.97;;;3.08;;
23670;SDS011;12012;51.998;7.614;2022-09-12T14:00:24;3.97;;;2.85;;
23670;SDS011;12012;51.998;7.614;2022-09-12T14:02:49;3.40;;;3.10;;
23670;SDS011;12012;51.998;7.614;2022-09-12T14:05:35;4.18;;;2.80;;
23670;SDS011;12012;51.998;7.614;2022-09-12T14:08:05;5.05;;;2.70;;
23670;SDS011;12012;51.998;7.614;2022-09-12T14:10:36;3.00;;;2.70;;
23670;SDS011;12012;51.998;7.614;2022-09-12T14:15:35;3.28;;;2.97;;
23670;SDS011;12012;51.998;7.614;2022-09-12T14:18:02;3.15;;;2.85;;
23670;SDS011;12012;51.998;7.614;2022-09-12T14:20:31;2.50;;;2.30;;
23670;SDS011;12012;51.998;7.614;2022-09-12T14:23:20;3.30;;;2.70;;
23670;SDS011;12012;51.998;7.614;2022-09-12T14:25:54;2.63;;;2.40;;
23670;SDS011;12012;51.998;7.614;2022-09-12T14:28:22;2.45;;;2.25;;
23670;SDS011;12012;51.998;7.614;2022-09-12T14:33:30;4.43;;;3.00;;
23670;SDS011;12012;51.998;7.614;2022-09-12T14:36:11;3.80;;;2.75;;
23670;SDS011;12012;51.998;7.614;2022-09-12T14:38:56;3.20;;;2.90;;
23670;SDS011;12012;51.998;7.614;2022-09-12T14:41:30;5.10;;;2.60;;
23670;SDS011;12012;51.998;7.614;2022-09-12T14:44:00;2.95;;;2.70;;
23670;SDS011;12012;51.998;7.614;2022-09-12T14:46:31;2.67;;;2.42;;
23670;SDS011;12012;51.998;7.614;2022-09-12T14:51:36;2.78;;;2.58;;
23670;SDS011;12012;51.998;7.614;2022-09-12T14:54:04;4.63;;;2.92;;
23670;SDS011;12012;51.998;7.614;2022-09-12T14:56:40;2.40;;;2.20;;
23670;SDS011;12012;51.998;7.614;2022-09-12T15:04:42;2.47;;;2.17;;
23670;SDS011;12012;51.998;7.614;2022-09-12T15:07:52;3.83;;;2.75;;
23670;SDS011;12012;51.998;7.614;2022-09-12T15:10:00;3.85;;;2.47;;
23670;SDS011;12012;51.998;7.614;2022-09-12T15:12:29;4.65;;;2.08;;
23670;SDS011;12012;51.998;7.614;2022-09-12T15:15:28;2.90;;;2.47;;
23670;SDS011;12012;51.998;7.614;2022-09-12T15:17:46;2.53;;;2.33;;
23670;SDS011;12012;51.998;7.614;2022-09-12T15:20:12;3.28;;;2.75;;
23670;SDS011;12012;51.998;7.614;2022-09-12T15:22:38;2.97;;;2.65;;
23670;SDS011;12012;51.998;7.614;2022-09-12T15:25:05;2.80;;;2.60;;
23670;SDS011;12012;51.998;7.614;2022-09-12T15:27:31;3.95;;;2.70;;
23670;SDS011;12012;51.998;7.614;2022-09-12T15:29:57;2.67;;;2.47;;
23670;SDS011;12012;51.998;7.614;2022-09-12T15:32:23;4.90;;;2.90;;
23670;SDS011;12012;51.998;7.614;2022-09-12T15:34:50;3.03;;;2.50;;
23670;SDS011;12012;51.998;7.614;2022-09-12T15:37:17;3.15;;;2.88;;
23670;SDS011;12012;51.998;7.614;2022-09-12T15:39:47;2.83;;;2.35;;
23670;SDS011;12012;51.998;7.614;2022-09-12T15:42:13;3.45;;;2.70;;
23670;SDS011;12012;51.998;7.614;2022-09-12T15:44:39;4.30;;;2.85;;
23670;SDS011;12012;51.998;7.614;2022-09-12T15:47:05;2.80;;;2.60;;
23670;SDS011;12012;51.998;7.614;2022-09-12T15:49:35;2.08;;;1.90;;
23670;SDS011;12012;51.998;7.614;2022-09-12T15:52:01;3.08;;;2.33;;
23670;SDS011;12012;51.998;7.614;2022-09-12T15:54:27;3.20;;;2.90;;
23670;SDS011;12012;51.998;7.614;2022-09-12T15:56:52;4.00;;;2.80;;
23670;SDS011;12012;51.998;7.614;2022-09-12T15:59:18;2.67;;;2.47;;
23670;SDS011;12012;51.998;7.614;2022-09-12T16:01:44;3.85;;;3.47;;
23670;SDS011;12012;51.998;7.614;2022-09-12T16:04:43;2.75;;;2.50;;
23670;SDS011;12012;51.998;7.614;2022-09-12T16:07:01;3.47;;;3.08;;
23670;SDS011;12012;51.998;7.614;2022-09-12T16:09:28;4.68;;;2.80;;
23670;SDS011;12012;51.998;7.614;2022-09-12T16:11:53;4.40;;;2.90;;
23670;SDS011;12012;51.998;7.614;2022-09-12T16:14:19;3.20;;;2.83;;
23670;SDS011;12012;51.998;7.614;2022-09-12T16:16:50;3.28;;;2.55;;
23670;SDS011;12012;51.998;7.614;2022-09-12T16:19:17;3.08;;;2.83;;
23670;SDS011;12012;51.998;7.614;2022-09-12T16:21:43;2.97;;;2.63;;
23670;SDS011;12012;51.998;7.614;2022-09-12T16:24:09;3.72;;;2.65;;
23670;SDS011;12012;51.998;7.614;2022-09-12T16:26:35;3.55;;;2.80;;
23670;SDS011;12012;51.998;7.614;2022-09-12T16:29:01;3.70;;;3.00;;
23670;SDS011;12012;51.998;7.614;2022-09-12T16:31:26;3.35;;;3.05;;
23670;SDS011;12012;51.998;7.614;2022-09-12T16:33:52;3.28;;;2.80;;
23670;SDS011;12012;51.998;7.614;2022-09-12T16:36:19;3.65;;;2.60;;
23670;SDS011;12012;51.998;7.614;2022-09-12T16:38:52;2.88;;;2.67;;
23670;SDS011;12012;51.998;7.614;2022-09-12T16:41:19;3.13;;;2.83;;
23670;SDS011;12012;51.998;7.614;2022-09-12T16:43:46;3.40;;;2.90;;
23670;SDS011;12012;51.998;7.614;2022-09-12T16:46:13;3.08;;;2.63;;
23670;SDS011;12012;51.998;7.614;2022-09-12T16:48:43;3.25;;;2.95;;
23670;SDS011;12012;51.998;7.614;2022-09-12T16:51:11;2.83;;;2.63;;
23670;SDS011;12012;51.998;7.614;2022-09-12T16:53:37;3.30;;;3.00;;
23670;SDS011;12012;51.998;7.614;2022-09-12T16:56:03;3.03;;;2.72;;
23670;SDS011;12012;51.998;7.614;2022-09-12T16:58:36;3.22;;;2.92;;
23670;SDS011;12012;51.998;7.614;2022-09-12T17:03:33;3.83;;;3.08;;
23670;SDS011;12012;51.998;7.614;2022-09-12T17:08:33;3.05;;;2.80;;
23670;SDS011;12012;51.998;7.614;2022-09-12T17:11:01;3.42;;;3.13;;
23670;SDS011;12012;51.998;7.614;2022-09-12T17:13:28;3.20;;;2.90;;
23670;SDS011;12012;51.998;7.614;2022-09-12T17:15:54;3.35;;;3.05;;
23670;SDS011;12012;51.998;7.614;2022-09-12T17:18:20;3.55;;;2.70;;
23670;SDS011;12012;51.998;7.614;2022-09-12T17:20:47;4.45;;;2.70;;
23670;SDS011;12012;51.998;7.614;2022-09-12T17:23:13;2.88;;;2.67;;
23670;SDS011;12012;51.998;7.614;2022-09-12T17:25:39;3.20;;;2.90;;
23670;SDS011;12012;51.998;7.614;2022-09-12T17:28:04;4.10;;;3.00;;
23670;SDS011;12012;51.998;7.614;2022-09-12T17:30:34;3.33;;;3.03;;
23670;SDS011;12012;51.998;7.614;2022-09-12T17:33:00;3.35;;;3.05;;
23670;SDS011;12012;51.998;7.614;2022-09-12T17:35:26;3.72;;;2.95;;
23670;SDS011;12012;51.998;7.614;2022-09-12T17:37:51;3.15;;;2.85;;
23670;SDS011;12012;51.998;7.614;2022-09-12T17:40:17;3.22;;;2.92;;
23670;SDS011;12012;51.998;7.614;2022-09-12T17:42:43;3.03;;;2.75;;
23670;SDS011;12012;51.998;7.614;2022-09-12T17:45:09;3.28;;;2.97;;